sensor_id;sensor_type;location;lat;lon;timestamp;temperature;humidity
61400;DHT22;47269;48.182;-1.946;2023-07-31T06:02:13;18.20;99.90
61400;DHT22;47269;48.182;-1.946;2023-07-31T06:04:38;18.20;99.90
61400;DHT22;47269;48.182;-1.946;2023-07-31T06:07:04;18.20;99.90
61400;DHT22;47269;48.182;-1.946;2023-07-31T06:09:30;18.20;99.90
61400;DHT22;47269;48.182;-1.946;2023-07-31T06:11:56;18.30;99.90
61400;DHT22;47269;48.182;-1.946;2023-07-31T06:14:22;18.30;99.90
61400;DHT22;47269;48.182;-1.946;2023-07-31T06:16:48;18.30;99.90
61400;DHT22;47269;48.182;-1.946;2023-07-31T06:19:13;18.40;99.90
61400;DHT22;47269;48.182;-1.946;2023-07-31T06:21:39;18.40;99.90
61400;DHT22;47269;48.182;-1.946;2023-07-31T06:24:07;18.40;99.90
61400;DHT22;47269;48.182;-1.946;2023-07-31T06:26:33;18.50;99.90
61400;DHT22;47269;48.182;-1.946;2023-07-31T06:28:59;18.50;99.90
61400;DHT22;47269;48.182;-1.946;2023-07-31T06:31:24;18.40;99.90
61400;DHT22;47269;48.182;-1.946;2023-07-31T06:33:52;18.40;99.90
61400;DHT22;47269;48.182;-1.946;2023-07-31T06:36:18;18.40;99.90
61400;DHT22;47269;48.182;-1.946;2023-07-31T06:38:43;18.40;99.90
61400;DHT22;47269;48.182;-1.946;2023-07-31T06:41:09;18.40;99.90
61400;DHT22;47269;48.182;-1.946;2023-07-31T06:43:36;18.30;99.90
61400;DHT22;47269;48.182;-1.946;2023-07-31T06:46:08;18.30;99.90
61400;DHT22;47269;48.182;-1.946;2023-07-31T06:48:34;18.40;99.90
61400;DHT22;47269;48.182;-1.946;2023-07-31T06:51:01;18.40;99.90
61400;DHT22;47269;48.182;-1.946;2023-07-31T06:53:26;18.40;99.90
61400;DHT22;47269;48.182;-1.946;2023-07-31T06:55:52;18.40;99.90
61400;DHT22;47269;48.182;-1.946;2023-07-31T06:58:18;18.40;99.90
61400;DHT22;47269;48.182;-1.946;2023-07-31T07:00:44;18.40;99.90
61400;DHT22;47269;48.182;-1.946;2023-07-31T07:03:09;18.30;99.90
61400;DHT22;47269;48.182;-1.946;2023-07-31T07:05:35;18.40;99.90
61400;DHT22;47269;48.182;-1.946;2023-07-31T07:08:01;18.40;99.90
61400;DHT22;47269;48.182;-1.946;2023-07-31T07:10:26;18.40;99.90
61400;DHT22;47269;48.182;-1.946;2023-07-31T07:12:52;18.40;99.90
61400;DHT22;47269;48.182;-1.946;2023-07-31T07:15:18;18.50;99.90
61400;DHT22;47269;48.182;-1.946;2023-07-31T07:17:44;18.40;99.90
61400;DHT22;47269;48.182;-1.946;2023-07-31T07:20:10;18.40;99.90
61400;DHT22;47269;48.182;-1.946;2023-07-31T07:22:35;18.50;99.90
61400;DHT22;47269;48.182;-1.946;2023-07-31T07:25:01;18.60;99.90
61400;DHT22;47269;48.182;-1.946;2023-07-31T07:27:27;18.60;99.90
61400;DHT22;47269;48.182;-1.946;2023-07-31T07:29:53;18.60;99.90
61400;DHT22;47269;48.182;-1.946;2023-07-31T07:32:19;18.60;99.90
61400;DHT22;47269;48.182;-1.946;2023-07-31T07:34:44;18.60;99.90
61400;DHT22;47269;48.182;-1.946;2023-07-31T07:37:11;18.60;99.90
61400;DHT22;47269;48.182;-1.946;2023-07-31T07:39:36;18.70;99.90
61400;DHT22;47269;48.182;-1.946;2023-07-31T07:42:02;18.70;99.90
61400;DHT22;47269;48.182;-1.946;2023-07-31T07:44:28;18.70;99.90
61400;DHT22;47269;48.182;-1.946;2023-07-31T07:46:54;18.70;99.90
61400;DHT22;47269;48.182;-1.946;2023-07-31T07:49:20;18.70;99.90
61400;DHT22;47269;48.182;-1.946;2023-07-31T07:51:48;18.70;99.90
61400;DHT22;47269;48.182;-1.946;2023-07-31T07:54:13;18.70;99.90
61400;DHT22;47269;48.182;-1.946;2023-07-31T07:56:39;18.70;99.90
61400;DHT22;47269;48.182;-1.946;2023-07-31T07:59:05;18.80;99.90
61400;DHT22;47269;48.182;-1.946;2023-07-31T08:01:31;18.70;99.90
61400;DHT22;47269;48.182;-1.946;2023-07-31T08:03:57;18.70;99.90
61400;DHT22;47269;48.182;-1.946;2023-07-31T08:06:23;18.80;99.90
61400;DHT22;47269;48.182;-1.946;2023-07-31T08:08:49;18.70;99.90
61400;DHT22;47269;48.182;-1.946;2023-07-31T08:11:15;18.90;99.90
61400;DHT22;47269;48.182;-1.946;2023-07-31T08:13:41;18.90;99.90
61400;DHT22;47269;48.182;-1.946;2023-07-31T08:16:06;19.00;99.90
61400;DHT22;47269;48.182;-1.946;2023-07-31T08:18:32;18.90;99.90
61400;DHT22;47269;48.182;-1.946;2023-07-31T08:20:58;18.80;99.90
61400;DHT22;47269;48.182;-1.946;2023-07-31T08:23:24;18.90;99.90
61400;DHT22;47269;48.182;-1.946;2023-07-31T08:25:50;18.90;99.90
61400;DHT22;47269;48.182;-1.946;2023-07-31T08:28:16;19.00;99.90
61400;DHT22;47269;48.182;-1.946;2023-07-31T08:30:42;19.20;99.90
61400;DHT22;47269;48.182;-1.946;2023-07-31T08:33:08;19.20;99.90
61400;DHT22;47269;48.182;-1.946;2023-07-31T08:35:34;19.50;99.90
61400;DHT22;47269;48.182;-1.946;2023-07-31T08:37:59;19.60;99.90
61400;DHT22;47269;48.182;-1.946;2023-07-31T08:40:25;19.60;99.90
61400;DHT22;47269;48.182;-1.946;2023-07-31T08:42:54;19.80;99.90
61400;DHT22;47269;48.182;-1.946;2023-07-31T08:45:20;19.50;99.90
61400;DHT22;47269;48.182;-1.946;2023-07-31T08:47:51;19.50;99.90
61400;DHT22;47269;48.182;-1.946;2023-07-31T08:50:18;19.60;99.90
61400;DHT22;47269;48.182;-1.946;2023-07-31T08:52:48;19.90;99.90
61400;DHT22;47269;48.182;-1.946;2023-07-31T08:55:13;19.80;99.90
61400;DHT22;47269;48.182;-1.946;2023-07-31T08:57:40;19.90;99.90
61400;DHT22;47269;48.182;-1.946;2023-07-31T09:00:08;20.10;99.90
61400;DHT22;47269;48.182;-1.946;2023-07-31T09:02:48;20.20;99.90
61400;DHT22;47269;48.182;-1.946;2023-07-31T09:05:17;20.30;99.90
61400;DHT22;47269;48.182;-1.946;2023-07-31T09:07:44;20.20;99.90
61400;DHT22;47269;48.182;-1.946;2023-07-31T09:10:12;20.30;99.90
61400;DHT22;47269;48.182;-1.946;2023-07-31T09:12:38;20.60;99.90
61400;DHT22;47269;48.182;-1.946;2023-07-31T09:15:05;20.40;99.90
61400;DHT22;47269;48.182;-1.946;2023-07-31T09:17:33;20.40;99.90
61400;DHT22;47269;48.182;-1.946;2023-07-31T09:20:20;20.50;99.90
61400;DHT22;47269;48.182;-1.946;2023-07-31T09:22:48;20.80;99.90
61400;DHT22;47269;48.182;-1.946;2023-07-31T09:28:10;20.90;99.90
61400;DHT22;47269;48.182;-1.946;2023-07-31T09:30:52;21.40;99.90
61400;DHT22;47269;48.182;-1.946;2023-07-31T09:33:20;20.90;99.90
61400;DHT22;47269;48.182;-1.946;2023-07-31T09:35:46;20.70;99.90
61400;DHT22;47269;48.182;-1.946;2023-07-31T09:38:14;20.60;99.90
61400;DHT22;47269;48.182;-1.946;2023-07-31T09:40:48;20.80;99.90
61400;DHT22;47269;48.182;-1.946;2023-07-31T09:43:19;21.00;99.90
61400;DHT22;47269;48.182;-1.946;2023-07-31T09:45:46;20.80;99.90
61400;DHT22;47269;48.182;-1.946;2023-07-31T09:48:16;20.50;99.90
61400;DHT22;47269;48.182;-1.946;2023-07-31T09:50:47;20.60;99.90
61400;DHT22;47269;48.182;-1.946;2023-07-31T09:53:13;20.50;99.90
61400;DHT22;47269;48.182;-1.946;2023-07-31T09:55:40;20.30;99.90
61400;DHT22;47269;48.182;-1.946;2023-07-31T09:58:07;20.30;99.90
61400;DHT22;47269;48.182;-1.946;2023-07-31T10:00:34;20.20;99.90
61400;DHT22;47269;48.182;-1.946;2023-07-31T10:03:02;20.10;99.90
61400;DHT22;47269;48.182;-1.946;2023-07-31T10:05:42;20.00;99.90
61400;DHT22;47269;48.182;-1.946;2023-07-31T10:08:10;20.00;99.90
61400;DHT22;47269;48.182;-1.946;2023-07-31T10:10:37;20.20;99.90
61400;DHT22;47269;48.182;-1.946;2023-07-31T10:13:06;20.30;99.90
61400;DHT22;47269;48.182;-1.946;2023-07-31T10:15:32;20.30;99.90
61400;DHT22;47269;48.182;-1.946;2023-07-31T10:17:58;20.20;99.90
61400;DHT22;47269;48.182;-1.946;2023-07-31T10:20:24;20.20;99.90
61400;DHT22;47269;48.182;-1.946;2023-07-31T10:22:54;20.20;99.90
61400;DHT22;47269;48.182;-1.946;2023-07-31T10:25:20;20.10;99.90
61400;DHT22;47269;48.182;-1.946;2023-07-31T10:27:47;20.30;99.90
61400;DHT22;47269;48.182;-1.946;2023-07-31T10:30:20;20.70;99.90
61400;DHT22;47269;48.182;-1.946;2023-07-31T10:32:47;20.70;99.90
61400;DHT22;47269;48.182;-1.946;2023-07-31T10:35:16;20.70;99.90
61400;DHT22;47269;48.182;-1.946;2023-07-31T10:37:43;20.60;99.90
61400;DHT22;47269;48.182;-1.946;2023-07-31T10:40:19;20.50;99.90
61400;DHT22;47269;48.182;-1.946;2023-07-31T10:42:49;20.60;99.90
61400;DHT22;47269;48.182;-1.946;2023-07-31T10:45:36;20.90;99.90
61400;DHT22;47269;48.182;-1.946;2023-07-31T10:48:06;21.10;99.90
61400;DHT22;47269;48.182;-1.946;2023-07-31T10:50:36;21.30;99.90
61400;DHT22;47269;48.182;-1.946;2023-07-31T10:53:30;22.10;99.90
61400;DHT22;47269;48.182;-1.946;2023-07-31T10:56:07;22.50;99.90
61400;DHT22;47269;48.182;-1.946;2023-07-31T10:58:33;22.50;99.90
61400;DHT22;47269;48.182;-1.946;2023-07-31T11:01:00;22.20;99.90
61400;DHT22;47269;48.182;-1.946;2023-07-31T11:03:45;22.20;99.90
61400;DHT22;47269;48.182;-1.946;2023-07-31T11:06:11;21.90;99.90
61400;DHT22;47269;48.182;-1.946;2023-07-31T11:08:45;21.90;99.90
61400;DHT22;47269;48.182;-1.946;2023-07-31T11:11:13;21.80;99.90
61400;DHT22;47269;48.182;-1.946;2023-07-31T11:13:52;21.80;99.90
61400;DHT22;47269;48.182;-1.946;2023-07-31T11:16:23;22.00;99.90
61400;DHT22;47269;48.182;-1.946;2023-07-31T11:18:50;21.90;99.90
61400;DHT22;47269;48.182;-1.946;2023-07-31T11:21:21;21.60;99.90
61400;DHT22;47269;48.182;-1.946;2023-07-31T11:23:48;21.50;99.90
61400;DHT22;47269;48.182;-1.946;2023-07-31T11:26:15;21.60;99.90
61400;DHT22;47269;48.182;-1.946;2023-07-31T11:28:40;21.30;99.90
61400;DHT22;47269;48.182;-1.946;2023-07-31T11:31:09;21.20;99.90
61400;DHT22;47269;48.182;-1.946;2023-07-31T11:33:35;21.30;99.90
61400;DHT22;47269;48.182;-1.946;2023-07-31T11:36:01;21.30;99.90
61400;DHT22;47269;48.182;-1.946;2023-07-31T11:38:29;21.40;99.90
61400;DHT22;47269;48.182;-1.946;2023-07-31T11:40:58;21.40;99.90
61400;DHT22;47269;48.182;-1.946;2023-07-31T11:43:25;21.20;99.90
61400;DHT22;47269;48.182;-1.946;2023-07-31T11:45:56;21.10;99.90
61400;DHT22;47269;48.182;-1.946;2023-07-31T11:48:33;21.00;99.90
61400;DHT22;47269;48.182;-1.946;2023-07-31T11:51:02;20.80;99.90
61400;DHT22;47269;48.182;-1.946;2023-07-31T11:56:39;20.90;99.90
61400;DHT22;47269;48.182;-1.946;2023-07-31T11:59:05;20.90;99.90
61400;DHT22;47269;48.182;-1.946;2023-07-31T12:01:33;21.00;99.90
61400;DHT22;47269;48.182;-1.946;2023-07-31T12:03:59;21.00;99.90
61400;DHT22;47269;48.182;-1.946;2023-07-31T12:06:35;21.00;99.90
61400;DHT22;47269;48.182;-1.946;2023-07-31T12:09:05;21.00;99.90
61400;DHT22;47269;48.182;-1.946;2023-07-31T12:11:31;20.90;99.90
61400;DHT22;47269;48.182;-1.946;2023-07-31T12:13:56;21.10;99.90
61400;DHT22;47269;48.182;-1.946;2023-07-31T12:16:26;21.30;99.90
61400;DHT22;47269;48.182;-1.946;2023-07-31T12:18:52;21.10;99.90
61400;DHT22;47269;48.182;-1.946;2023-07-31T12:21:19;21.20;99.90
61400;DHT22;47269;48.182;-1.946;2023-07-31T12:23:45;21.00;99.90
61400;DHT22;47269;48.182;-1.946;2023-07-31T12:26:12;21.00;99.90
61400;DHT22;47269;48.182;-1.946;2023-07-31T12:28:42;20.90;99.90
61400;DHT22;47269;48.182;-1.946;2023-07-31T12:31:20;20.90;99.90
61400;DHT22;47269;48.182;-1.946;2023-07-31T12:33:51;20.80;99.90
61400;DHT22;47269;48.182;-1.946;2023-07-31T12:36:24;20.80;99.90
61400;DHT22;47269;48.182;-1.946;2023-07-31T12:38:50;20.70;99.90
61400;DHT22;47269;48.182;-1.946;2023-07-31T12:41:16;20.80;99.90
61400;DHT22;47269;48.182;-1.946;2023-07-31T12:43:44;20.80;99.90
61400;DHT22;47269;48.182;-1.946;2023-07-31T12:46:10;20.70;99.90
61400;DHT22;47269;48.182;-1.946;2023-07-31T12:48:37;20.70;99.90
61400;DHT22;47269;48.182;-1.946;2023-07-31T12:51:04;20.60;99.90
61400;DHT22;47269;48.182;-1.946;2023-07-31T12:53:30;20.60;99.90
61400;DHT22;47269;48.182;-1.946;2023-07-31T12:55:56;20.90;99.90
61400;DHT22;47269;48.182;-1.946;2023-07-31T12:58:21;21.00;99.90
61400;DHT22;47269;48.182;-1.946;2023-07-31T13:00:47;20.90;99.90
61400;DHT22;47269;48.182;-1.946;2023-07-31T13:03:13;20.90;99.90
61400;DHT22;47269;48.182;-1.946;2023-07-31T13:05:38;21.20;99.90
61400;DHT22;47269;48.182;-1.946;2023-07-31T13:08:04;21.00;99.90
61400;DHT22;47269;48.182;-1.946;2023-07-31T13:10:30;20.90;99.90
61400;DHT22;47269;48.182;-1.946;2023-07-31T13:12:56;20.90;99.90
61400;DHT22;47269;48.182;-1.946;2023-07-31T13:15:22;20.80;99.90
61400;DHT22;47269;48.182;-1.946;2023-07-31T13:17:47;20.80;99.90
61400;DHT22;47269;48.182;-1.946;2023-07-31T13:20:13;20.70;99.90
61400;DHT22;47269;48.182;-1.946;2023-07-31T13:22:39;20.70;99.90
61400;DHT22;47269;48.182;-1.946;2023-07-31T13:25:05;20.60;99.90
61400;DHT22;47269;48.182;-1.946;2023-07-31T13:27:31;20.70;99.90
61400;DHT22;47269;48.182;-1.946;2023-07-31T13:29:57;20.60;99.90
61400;DHT22;47269;48.182;-1.946;2023-07-31T13:32:23;20.50;99.90
61400;DHT22;47269;48.182;-1.946;2023-07-31T13:34:49;20.40;99.90
61400;DHT22;47269;48.182;-1.946;2023-07-31T13:37:15;20.30;99.90
61400;DHT22;47269;48.182;-1.946;2023-07-31T13:39:41;20.10;99.90
61400;DHT22;47269;48.182;-1.946;2023-07-31T13:42:08;20.10;99.90
61400;DHT22;47269;48.182;-1.946;2023-07-31T13:44:38;20.00;99.90
61400;DHT22;47269;48.182;-1.946;2023-07-31T13:47:04;19.70;99.90
61400;DHT22;47269;48.182;-1.946;2023-07-31T13:49:30;19.90;99.90
61400;DHT22;47269;48.182;-1.946;2023-07-31T13:51:56;19.90;99.90
61400;DHT22;47269;48.182;-1.946;2023-07-31T13:54:23;19.90;99.90
61400;DHT22;47269;48.182;-1.946;2023-07-31T13:56:49;20.00;99.90
61400;DHT22;47269;48.182;-1.946;2023-07-31T13:59:15;19.90;99.90
61400;DHT22;47269;48.182;-1.946;2023-07-31T14:01:42;19.90;99.90
61400;DHT22;47269;48.182;-1.946;2023-07-31T14:04:08;20.00;99.90
61400;DHT22;47269;48.182;-1.946;2023-07-31T14:06:34;19.80;99.90
61400;DHT22;47269;48.182;-1.946;2023-07-31T14:08:59;20.00;99.90
61400;DHT22;47269;48.182;-1.946;2023-07-31T14:11:26;19.80;99.90
61400;DHT22;47269;48.182;-1.946;2023-07-31T14:13:52;20.00;99.90
61400;DHT22;47269;48.182;-1.946;2023-07-31T14:16:18;19.90;99.90
61400;DHT22;47269;48.182;-1.946;2023-07-31T14:18:43;19.90;99.90
61400;DHT22;47269;48.182;-1.946;2023-07-31T14:21:11;19.90;99.90
61400;DHT22;47269;48.182;-1.946;2023-07-31T14:23:37;19.90;99.90
61400;DHT22;47269;48.182;-1.946;2023-07-31T14:26:02;19.90;99.90
61400;DHT22;47269;48.182;-1.946;2023-07-31T14:28:28;20.00;99.90
61400;DHT22;47269;48.182;-1.946;2023-07-31T14:30:56;20.10;99.90
61400;DHT22;47269;48.182;-1.946;2023-07-31T14:33:22;20.20;99.90
61400;DHT22;47269;48.182;-1.946;2023-07-31T14:35:48;20.00;99.90
61400;DHT22;47269;48.182;-1.946;2023-07-31T14:38:13;20.10;99.90
61400;DHT22;47269;48.182;-1.946;2023-07-31T14:40:39;19.80;99.90
61400;DHT22;47269;48.182;-1.946;2023-07-31T14:43:05;19.90;99.90
61400;DHT22;47269;48.182;-1.946;2023-07-31T14:45:30;19.90;99.90
61400;DHT22;47269;48.182;-1.946;2023-07-31T14:47:56;20.00;99.90
61400;DHT22;47269;48.182;-1.946;2023-07-31T14:50:22;20.00;99.90
61400;DHT22;47269;48.182;-1.946;2023-07-31T14:52:48;20.00;99.90
61400;DHT22;47269;48.182;-1.946;2023-07-31T14:55:14;19.80;99.90
61400;DHT22;47269;48.182;-1.946;2023-07-31T14:57:40;20.20;99.90
61400;DHT22;47269;48.182;-1.946;2023-07-31T15:00:06;20.10;99.90
61400;DHT22;47269;48.182;-1.946;2023-07-31T15:02:39;20.20;99.90
61400;DHT22;47269;48.182;-1.946;2023-07-31T15:05:05;20.10;99.90
61400;DHT22;47269;48.182;-1.946;2023-07-31T15:07:32;19.90;99.90
61400;DHT22;47269;48.182;-1.946;2023-07-31T15:09:58;19.90;99.90
61400;DHT22;47269;48.182;-1.946;2023-07-31T15:12:24;20.10;99.90
61400;DHT22;47269;48.182;-1.946;2023-07-31T15:14:50;20.10;99.90
61400;DHT22;47269;48.182;-1.946;2023-07-31T15:17:17;20.20;99.90
61400;DHT22;47269;48.182;-1.946;2023-07-31T15:19:43;20.20;99.90
61400;DHT22;47269;48.182;-1.946;2023-07-31T15:22:09;20.00;99.90
61400;DHT22;47269;48.182;-1.946;2023-07-31T15:24:34;20.20;99.90
61400;DHT22;47269;48.182;-1.946;2023-07-31T15:27:00;20.20;99.90
61400;DHT22;47269;48.182;-1.946;2023-07-31T15:29:28;20.00;99.90
61400;DHT22;47269;48.182;-1.946;2023-07-31T15:31:54;19.90;99.90
61400;DHT22;47269;48.182;-1.946;2023-07-31T15:34:20;19.90;99.90
61400;DHT22;47269;48.182;-1.946;2023-07-31T15:36:46;20.00;99.90
61400;DHT22;47269;48.182;-1.946;2023-07-31T15:39:12;20.10;99.90
61400;DHT22;47269;48.182;-1.946;2023-07-31T15:41:38;20.00;99.90
61400;DHT22;47269;48.182;-1.946;2023-07-31T15:44:04;19.90;99.90
61400;DHT22;47269;48.182;-1.946;2023-07-31T15:46:31;20.20;99.90
61400;DHT22;47269;48.182;-1.946;2023-07-31T15:48:56;20.10;99.90
61400;DHT22;47269;48.182;-1.946;2023-07-31T15:51:23;20.10;99.90
61400;DHT22;47269;48.182;-1.946;2023-07-31T15:53:49;20.20;99.90
61400;DHT22;47269;48.182;-1.946;2023-07-31T15:56:15;20.20;99.90
61400;DHT22;47269;48.182;-1.946;2023-07-31T15:58:40;20.30;99.90
61400;DHT22;47269;48.182;-1.946;2023-07-31T16:01:06;20.20;99.90
61400;DHT22;47269;48.182;-1.946;2023-07-31T16:03:32;20.10;99.90
61400;DHT22;47269;48.182;-1.946;2023-07-31T16:05:58;20.40;99.90
61400;DHT22;47269;48.182;-1.946;2023-07-31T16:08:24;20.20;99.90
61400;DHT22;47269;48.182;-1.946;2023-07-31T16:10:49;20.10;99.90
61400;DHT22;47269;48.182;-1.946;2023-07-31T16:13:15;20.20;99.90
61400;DHT22;47269;48.182;-1.946;2023-07-31T16:15:41;20.00;99.90
61400;DHT22;47269;48.182;-1.946;2023-07-31T16:18:06;20.20;99.90
61400;DHT22;47269;48.182;-1.946;2023-07-31T16:20:32;20.10;99.90
61400;DHT22;47269;48.182;-1.946;2023-07-31T16:22:58;20.30;99.90
61400;DHT22;47269;48.182;-1.946;2023-07-31T16:25:23;20.40;99.90
61400;DHT22;47269;48.182;-1.946;2023-07-31T16:27:49;20.40;99.90
61400;DHT22;47269;48.182;-1.946;2023-07-31T16:30:15;20.10;99.90
61400;DHT22;47269;48.182;-1.946;2023-07-31T16:32:40;20.40;99.90
61400;DHT22;47269;48.182;-1.946;2023-07-31T16:35:06;20.40;99.90
61400;DHT22;47269;48.182;-1.946;2023-07-31T16:37:32;20.10;99.90
61400;DHT22;47269;48.182;-1.946;2023-07-31T16:39:58;20.30;99.90
61400;DHT22;47269;48.182;-1.946;2023-07-31T16:42:24;20.00;99.90
61400;DHT22;47269;48.182;-1.946;2023-07-31T16:44:49;20.30;99.90
61400;DHT22;47269;48.182;-1.946;2023-07-31T16:47:15;20.20;99.90
61400;DHT22;47269;48.182;-1.946;2023-07-31T16:49:41;20.20;99.90
61400;DHT22;47269;48.182;-1.946;2023-07-31T16:52:07;19.90;99.90
61400;DHT22;47269;48.182;-1.946;2023-07-31T16:54:33;20.10;99.90
61400;DHT22;47269;48.182;-1.946;2023-07-31T16:57:00;19.80;99.90
61400;DHT22;47269;48.182;-1.946;2023-07-31T16:59:25;19.80;99.90
61400;DHT22;47269;48.182;-1.946;2023-07-31T17:01:51;20.10;99.90
61400;DHT22;47269;48.182;-1.946;2023-07-31T17:04:17;19.80;99.90
61400;DHT22;47269;48.182;-1.946;2023-07-31T17:06:43;20.10;99.90
61400;DHT22;47269;48.182;-1.946;2023-07-31T17:09:09;19.90;99.90
61400;DHT22;47269;48.182;-1.946;2023-07-31T17:11:35;20.00;99.90
61400;DHT22;47269;48.182;-1.946;2023-07-31T17:14:01;20.10;99.90
61400;DHT22;47269;48.182;-1.946;2023-07-31T17:16:29;19.80;99.90
61400;DHT22;47269;48.182;-1.946;2023-07-31T17:18:55;19.70;99.90
61400;DHT22;47269;48.182;-1.946;2023-07-31T17:21:27;20.00;99.90
61400;DHT22;47269;48.182;-1.946;2023-07-31T17:23:53;19.90;99.90
61400;DHT22;47269;48.182;-1.946;2023-07-31T17:26:19;20.00;99.90
61400;DHT22;47269;48.182;-1.946;2023-07-31T17:28:45;19.70;99.90
61400;DHT22;47269;48.182;-1.946;2023-07-31T17:31:10;19.80;99.90
61400;DHT22;47269;48.182;-1.946;2023-07-31T17:33:41;19.90;99.90
61400;DHT22;47269;48.182;-1.946;2023-07-31T17:36:07;19.90;99.90
61400;DHT22;47269;48.182;-1.946;2023-07-31T17:38:32;19.90;99.90
61400;DHT22;47269;48.182;-1.946;2023-07-31T17:40:58;19.70;99.90
61400;DHT22;47269;48.182;-1.946;2023-07-31T17:43:24;19.80;99.90
61400;DHT22;47269;48.182;-1.946;2023-07-31T17:45:50;20.00;99.90
61400;DHT22;47269;48.182;-1.946;2023-07-31T17:48:16;19.90;99.90
61400;DHT22;47269;48.182;-1.946;2023-07-31T17:50:42;19.70;99.90
61400;DHT22;47269;48.182;-1.946;2023-07-31T17:53:07;19.60;99.90
61400;DHT22;47269;48.182;-1.946;2023-07-31T17:55:33;19.70;99.90
61400;DHT22;47269;48.182;-1.946;2023-07-31T17:57:59;19.70;99.90
61400;DHT22;47269;48.182;-1.946;2023-07-31T18:00:25;19.60;99.90
61400;DHT22;47269;48.182;-1.946;2023-07-31T18:02:50;19.80;99.90
61400;DHT22;47269;48.182;-1.946;2023-07-31T18:05:16;19.70;99.90
61400;DHT22;47269;48.182;-1.946;2023-07-31T18:07:42;19.60;99.90
61400;DHT22;47269;48.182;-1.946;2023-07-31T18:10:07;19.60;99.90
61400;DHT22;47269;48.182;-1.946;2023-07-31T18:12:36;19.60;99.90
61400;DHT22;47269;48.182;-1.946;2023-07-31T18:15:03;19.90;99.90
61400;DHT22;47269;48.182;-1.946;2023-07-31T18:17:29;19.60;99.90
61400;DHT22;47269;48.182;-1.946;2023-07-31T18:19:55;19.70;99.90
61400;DHT22;47269;48.182;-1.946;2023-07-31T18:22:21;19.60;99.90
61400;DHT22;47269;48.182;-1.946;2023-07-31T18:24:47;19.80;99.90
61400;DHT22;47269;48.182;-1.946;2023-07-31T18:27:13;19.70;99.90
61400;DHT22;47269;48.182;-1.946;2023-07-31T18:29:43;19.70;99.90
61400;DHT22;47269;48.182;-1.946;2023-07-31T18:32:09;19.70;99.90
61400;DHT22;47269;48.182;-1.946;2023-07-31T18:34:35;19.60;99.90
61400;DHT22;47269;48.182;-1.946;2023-07-31T18:37:01;19.70;99.90
61400;DHT22;47269;48.182;-1.946;2023-07-31T18:39:26;19.70;99.90
61400;DHT22;47269;48.182;-1.946;2023-07-31T18:41:52;19.70;99.90
61400;DHT22;47269;48.182;-1.946;2023-07-31T18:44:18;19.70;99.90
61400;DHT22;47269;48.182;-1.946;2023-07-31T18:46:43;19.50;99.90
61400;DHT22;47269;48.182;-1.946;2023-07-31T18:49:09;19.40;99.90
61400;DHT22;47269;48.182;-1.946;2023-07-31T18:51:34;19.60;99.90
61400;DHT22;47269;48.182;-1.946;2023-07-31T18:54:04;19.40;99.90
61400;DHT22;47269;48.182;-1.946;2023-07-31T18:56:30;19.50;99.90
61400;DHT22;47269;48.182;-1.946;2023-07-31T18:58:56;19.40;99.90
61400;DHT22;47269;48.182;-1.946;2023-07-31T19:01:23;19.40;99.90
61400;DHT22;47269;48.182;-1.946;2023-07-31T19:03:49;19.60;99.90
61400;DHT22;47269;48.182;-1.946;2023-07-31T19:06:14;19.30;99.90
61400;DHT22;47269;48.182;-1.946;2023-07-31T19:08:40;19.40;99.90
61400;DHT22;47269;48.182;-1.946;2023-07-31T19:11:06;19.40;99.90
61400;DHT22;47269;48.182;-1.946;2023-07-31T19:13:31;19.40;99.90
61400;DHT22;47269;48.182;-1.946;2023-07-31T19:15:57;19.50;99.90
61400;DHT22;47269;48.182;-1.946;2023-07-31T19:18:23;19.30;99.90
61400;DHT22;47269;48.182;-1.946;2023-07-31T19:20:49;19.50;99.90
61400;DHT22;47269;48.182;-1.946;2023-07-31T19:23:15;19.40;99.90
61400;DHT22;47269;48.182;-1.946;2023-07-31T19:25:41;19.50;99.90
61400;DHT22;47269;48.182;-1.946;2023-07-31T19:28:07;19.50;99.90
61400;DHT22;47269;48.182;-1.946;2023-07-31T19:30:33;19.40;99.90
61400;DHT22;47269;48.182;-1.946;2023-07-31T19:32:59;19.30;99.90
61400;DHT22;47269;48.182;-1.946;2023-07-31T19:35:24;19.40;99.90
61400;DHT22;47269;48.182;-1.946;2023-07-31T19:37:50;19.20;99.90
61400;DHT22;47269;48.182;-1.946;2023-07-31T19:40:18;19.50;99.90
61400;DHT22;47269;48.182;-1.946;2023-07-31T19:42:44;19.30;99.90
61400;DHT22;47269;48.182;-1.946;2023-07-31T19:45:11;19.40;99.90
61400;DHT22;47269;48.182;-1.946;2023-07-31T19:47:38;19.40;99.90
61400;DHT22;47269;48.182;-1.946;2023-07-31T19:50:04;19.30;99.90
61400;DHT22;47269;48.182;-1.946;2023-07-31T19:52:29;19.50;99.90
61400;DHT22;47269;48.182;-1.946;2023-07-31T19:54:55;19.20;99.90
61400;DHT22;47269;48.182;-1.946;2023-07-31T19:57:21;19.50;99.90
61400;DHT22;47269;48.182;-1.946;2023-07-31T19:59:46;19.20;99.90
61400;DHT22;47269;48.182;-1.946;2023-07-31T20:02:12;19.50;99.90
61400;DHT22;47269;48.182;-1.946;2023-07-31T20:04:38;19.40;99.90
61400;DHT22;47269;48.182;-1.946;2023-07-31T20:07:05;19.40;99.90
61400;DHT22;47269;48.182;-1.946;2023-07-31T20:09:30;19.30;99.90
61400;DHT22;47269;48.182;-1.946;2023-07-31T20:11:56;19.20;99.90
61400;DHT22;47269;48.182;-1.946;2023-07-31T20:14:23;19.40;99.90
61400;DHT22;47269;48.182;-1.946;2023-07-31T20:16:48;19.30;99.90
61400;DHT22;47269;48.182;-1.946;2023-07-31T20:19:15;19.30;99.90
61400;DHT22;47269;48.182;-1.946;2023-07-31T20:21:40;19.30;99.90
61400;DHT22;47269;48.182;-1.946;2023-07-31T20:24:07;19.40;99.90
61400;DHT22;47269;48.182;-1.946;2023-07-31T20:26:33;19.20;99.90
61400;DHT22;47269;48.182;-1.946;2023-07-31T20:28:59;19.20;99.90
61400;DHT22;47269;48.182;-1.946;2023-07-31T20:31:25;19.40;99.90
61400;DHT22;47269;48.182;-1.946;2023-07-31T20:33:50;19.20;99.90
61400;DHT22;47269;48.182;-1.946;2023-07-31T20:36:16;19.30;99.90
61400;DHT22;47269;48.182;-1.946;2023-07-31T20:38:42;19.50;99.90
61400;DHT22;47269;48.182;-1.946;2023-07-31T20:41:09;19.50;99.90
61400;DHT22;47269;48.182;-1.946;2023-07-31T20:43:35;19.20;99.90
61400;DHT22;47269;48.182;-1.946;2023-07-31T20:46:00;19.30;99.90
61400;DHT22;47269;48.182;-1.946;2023-07-31T20:48:26;19.40;99.90
61400;DHT22;47269;48.182;-1.946;2023-07-31T20:50:52;19.10;99.90
61400;DHT22;47269;48.182;-1.946;2023-07-31T20:53:18;19.40;99.90
61400;DHT22;47269;48.182;-1.946;2023-07-31T20:55:44;19.40;99.90
61400;DHT22;47269;48.182;-1.946;2023-07-31T20:58:09;19.30;99.90
61400;DHT22;47269;48.182;-1.946;2023-07-31T21:00:35;19.20;99.90
61400;DHT22;47269;48.182;-1.946;2023-07-31T21:03:04;19.30;99.90
61400;DHT22;47269;48.182;-1.946;2023-07-31T21:05:29;19.50;99.90
61400;DHT22;47269;48.182;-1.946;2023-07-31T21:07:55;19.50;99.90
61400;DHT22;47269;48.182;-1.946;2023-07-31T21:10:21;19.20;99.90
61400;DHT22;47269;48.182;-1.946;2023-07-31T21:12:46;19.40;99.90
61400;DHT22;47269;48.182;-1.946;2023-07-31T21:15:12;19.50;99.90
61400;DHT22;47269;48.182;-1.946;2023-07-31T21:17:38;19.30;99.90
61400;DHT22;47269;48.182;-1.946;2023-07-31T21:20:04;19.40;99.90